sensor_id;sensor_type;location;lat;lon;timestamp;P1;durP1;ratioP1;P2;durP2;ratioP2
48627;SDS011;34424;52.234;6.500;2023-12-20T00:04:28;14.4;;;7.2;;
48627;SDS011;34424;52.234;6.500;2023-12-20T00:09:28;22.1;;;7.7;;
48627;SDS011;34424;52.234;6.500;2023-12-20T00:14:27;19.1;;;8.5;;
48627;SDS011;34424;52.234;6.500;2023-12-20T00:19:27;23;;;9.5;;
48627;SDS011;34424;52.234;6.500;2023-12-20T00:24:26;18.8;;;9.4;;
48627;SDS011;34424;52.234;6.500;2023-12-20T00:29:26;23.4;;;9.2;;
48627;SDS011;34424;52.234;6.500;2023-12-20T00:34:26;20.1;;;9.4;;
48627;SDS011;34424;52.234;6.500;2023-12-20T00:39:25;22.1;;;9;;
48627;SDS011;34424;52.234;6.500;2023-12-20T00:44:25;20.3;;;8.2;;
48627;SDS011;34424;52.234;6.500;2023-12-20T00:49:24;20;;;7.6;;
48627;SDS011;34424;52.234;6.500;2023-12-20T00:54:24;20.8;;;7.6;;
48627;SDS011;34424;52.234;6.500;2023-12-20T00:59:23;16.1;;;6.9;;
48627;SDS011;34424;52.234;6.500;2023-12-20T01:04:23;23.4;;;6;;
48627;SDS011;34424;52.234;6.500;2023-12-20T01:09:23;17.7;;;5.9;;
48627;SDS011;34424;52.234;6.500;2023-12-20T01:14:22;16.1;;;4.8;;
48627;SDS011;34424;52.234;6.500;2023-12-20T01:19:22;17.4;;;5.9;;
48627;SDS011;34424;52.234;6.500;2023-12-20T01:24:21;15.8;;;5.3;;
48627;SDS011;34424;52.234;6.500;2023-12-20T01:29:21;11.5;;;4.2;;
48627;SDS011;34424;52.234;6.500;2023-12-20T01:34:20;14.7;;;4;;
48627;SDS011;34424;52.234;6.500;2023-12-20T01:39:20;15.8;;;3.9;;
48627;SDS011;34424;52.234;6.500;2023-12-20T01:44:20;16;;;4.6;;
48627;SDS011;34424;52.234;6.500;2023-12-20T01:49:19;17.3;;;4.4;;
48627;SDS011;34424;52.234;6.500;2023-12-20T01:54:19;16.9;;;4.2;;
48627;SDS011;34424;52.234;6.500;2023-12-20T01:59:18;12.8;;;4.1;;
48627;SDS011;34424;52.234;6.500;2023-12-20T02:04:18;16.3;;;4.9;;
48627;SDS011;34424;52.234;6.500;2023-12-20T02:09:18;14.3;;;4.4;;
48627;SDS011;34424;52.234;6.500;2023-12-20T02:14:17;14.6;;;4.7;;
48627;SDS011;34424;52.234;6.500;2023-12-20T02:19:17;10.9;;;3.8;;
48627;SDS011;34424;52.234;6.500;2023-12-20T02:24:16;19.5;;;4;;
48627;SDS011;34424;52.234;6.500;2023-12-20T02:29:16;11.8;;;3.7;;
48627;SDS011;34424;52.234;6.500;2023-12-20T02:34:15;9.6;;;3.8;;
48627;SDS011;34424;52.234;6.500;2023-12-20T02:39:15;14.4;;;4.1;;
48627;SDS011;34424;52.234;6.500;2023-12-20T02:44:14;17.1;;;3.8;;
48627;SDS011;34424;52.234;6.500;2023-12-20T02:49:14;11.9;;;3.2;;
48627;SDS011;34424;52.234;6.500;2023-12-20T02:54:13;16.2;;;3.9;;
48627;SDS011;34424;52.234;6.500;2023-12-20T02:59:13;16.7;;;4.5;;
48627;SDS011;34424;52.234;6.500;2023-12-20T03:04:13;13.5;;;3.6;;
48627;SDS011;34424;52.234;6.500;2023-12-20T03:09:12;12.3;;;4.2;;
48627;SDS011;34424;52.234;6.500;2023-12-20T03:14:12;17.9;;;3.7;;
48627;SDS011;34424;52.234;6.500;2023-12-20T03:19:11;16;;;3.8;;
48627;SDS011;34424;52.234;6.500;2023-12-20T03:24:11;11.7;;;4.1;;
48627;SDS011;34424;52.234;6.500;2023-12-20T03:29:11;10.4;;;3.7;;
48627;SDS011;34424;52.234;6.500;2023-12-20T03:34:10;12.1;;;3.4;;
48627;SDS011;34424;52.234;6.500;2023-12-20T03:39:10;18.4;;;4.8;;
48627;SDS011;34424;52.234;6.500;2023-12-20T03:44:09;22.7;;;4.5;;
48627;SDS011;34424;52.234;6.500;2023-12-20T03:49:09;14.6;;;4.2;;
48627;SDS011;34424;52.234;6.500;2023-12-20T03:54:09;14.3;;;5;;
48627;SDS011;34424;52.234;6.500;2023-12-20T03:59:08;14.4;;;4.9;;
48627;SDS011;34424;52.234;6.500;2023-12-20T04:04:08;16.2;;;4.6;;
48627;SDS011;34424;52.234;6.500;2023-12-20T04:09:07;14.8;;;4.1;;
48627;SDS011;34424;52.234;6.500;2023-12-20T04:14:07;18.7;;;5.3;;
48627;SDS011;34424;52.234;6.500;2023-12-20T04:19:07;15.6;;;4.6;;
48627;SDS011;34424;52.234;6.500;2023-12-20T04:24:06;14.9;;;4.4;;
48627;SDS011;34424;52.234;6.500;2023-12-20T04:29:06;16.4;;;4.5;;
48627;SDS011;34424;52.234;6.500;2023-12-20T04:34:05;16.6;;;4.2;;
48627;SDS011;34424;52.234;6.500;2023-12-20T04:39:05;19;;;4.9;;
48627;SDS011;34424;52.234;6.500;2023-12-20T04:44:05;14.7;;;4.1;;
48627;SDS011;34424;52.234;6.500;2023-12-20T04:49:04;15.5;;;4.6;;
48627;SDS011;34424;52.234;6.500;2023-12-20T04:54:04;15.3;;;4.6;;
48627;SDS011;34424;52.234;6.500;2023-12-20T04:59:03;20.2;;;4.1;;
48627;SDS011;34424;52.234;6.500;2023-12-20T05:04:03;22.3;;;5.3;;
48627;SDS011;34424;52.234;6.500;2023-12-20T05:09:03;20.3;;;4.2;;
48627;SDS011;34424;52.234;6.500;2023-12-20T05:14:02;16.6;;;4.6;;
48627;SDS011;34424;52.234;6.500;2023-12-20T05:19:02;15.6;;;4.5;;
48627;SDS011;34424;52.234;6.500;2023-12-20T05:24:02;12.2;;;4.7;;
48627;SDS011;34424;52.234;6.500;2023-12-20T05:29:01;19.3;;;4.6;;
48627;SDS011;34424;52.234;6.500;2023-12-20T05:34:01;17.9;;;4.2;;
48627;SDS011;34424;52.234;6.500;2023-12-20T05:39:00;17.1;;;4.1;;
48627;SDS011;34424;52.234;6.500;2023-12-20T05:44:00;14.4;;;4.1;;
48627;SDS011;34424;52.234;6.500;2023-12-20T05:49:00;19;;;4.3;;
48627;SDS011;34424;52.234;6.500;2023-12-20T05:53:59;23.2;;;7.4;;
48627;SDS011;34424;52.234;6.500;2023-12-20T05:58:59;15.1;;;4.9;;
48627;SDS011;34424;52.234;6.500;2023-12-20T06:03:58;20;;;4.6;;
48627;SDS011;34424;52.234;6.500;2023-12-20T06:08:58;21.5;;;6.5;;
48627;SDS011;34424;52.234;6.500;2023-12-20T06:13:58;16.6;;;4.8;;
48627;SDS011;34424;52.234;6.500;2023-12-20T06:18:57;13.2;;;4.3;;
48627;SDS011;34424;52.234;6.500;2023-12-20T06:23:58;18.2;;;5;;
48627;SDS011;34424;52.234;6.500;2023-12-20T06:28:57;16.7;;;4.3;;
48627;SDS011;34424;52.234;6.500;2023-12-20T06:33:56;17.7;;;4.3;;
48627;SDS011;34424;52.234;6.500;2023-12-20T06:38:56;15;;;4;;
48627;SDS011;34424;52.234;6.500;2023-12-20T06:43:55;10.9;;;4;;
48627;SDS011;34424;52.234;6.500;2023-12-20T06:48:55;17.4;;;5.4;;
48627;SDS011;34424;52.234;6.500;2023-12-20T06:53:55;18.3;;;4.7;;
48627;SDS011;34424;52.234;6.500;2023-12-20T06:58:54;21.2;;;5.5;;
48627;SDS011;34424;52.234;6.500;2023-12-20T07:03:54;14;;;4.2;;
48627;SDS011;34424;52.234;6.500;2023-12-20T07:08:54;17.8;;;4.8;;
48627;SDS011;34424;52.234;6.500;2023-12-20T07:13:53;14.4;;;4.3;;
48627;SDS011;34424;52.234;6.500;2023-12-20T07:18:53;18.3;;;4.3;;
48627;SDS011;34424;52.234;6.500;2023-12-20T07:23:52;18;;;4.9;;
48627;SDS011;34424;52.234;6.500;2023-12-20T07:28:52;21.4;;;5.1;;
48627;SDS011;34424;52.234;6.500;2023-12-20T07:33:52;17.8;;;4.4;;
48627;SDS011;34424;52.234;6.500;2023-12-20T07:38:51;21.5;;;6;;
48627;SDS011;34424;52.234;6.500;2023-12-20T07:43:51;12.5;;;4.2;;
48627;SDS011;34424;52.234;6.500;2023-12-20T07:48:50;19.4;;;6;;
48627;SDS011;34424;52.234;6.500;2023-12-20T07:53:51;15;;;4.5;;
48627;SDS011;34424;52.234;6.500;2023-12-20T07:58:50;19;;;6.5;;
48627;SDS011;34424;52.234;6.500;2023-12-20T08:03:49;16.4;;;4.3;;
48627;SDS011;34424;52.234;6.500;2023-12-20T08:08:49;14.5;;;4.5;;
48627;SDS011;34424;52.234;6.500;2023-12-20T08:13:49;19;;;5.6;;
48627;SDS011;34424;52.234;6.500;2023-12-20T08:18:48;15.9;;;4.3;;
48627;SDS011;34424;52.234;6.500;2023-12-20T08:23:48;15.7;;;5.8;;
48627;SDS011;34424;52.234;6.500;2023-12-20T08:28:47;18.1;;;5.2;;
48627;SDS011;34424;52.234;6.500;2023-12-20T08:33:48;22;;;6.6;;
48627;SDS011;34424;52.234;6.500;2023-12-20T08:38:47;17.5;;;4.4;;
48627;SDS011;34424;52.234;6.500;2023-12-20T08:43:46;11.1;;;5.5;;
48627;SDS011;34424;52.234;6.500;2023-12-20T08:48:46;13.5;;;4.7;;
48627;SDS011;34424;52.234;6.500;2023-12-20T08:53:45;18.5;;;6.7;;
48627;SDS011;34424;52.234;6.500;2023-12-20T08:58:45;18.4;;;6;;
48627;SDS011;34424;52.234;6.500;2023-12-20T09:03:45;19.2;;;5.8;;
48627;SDS011;34424;52.234;6.500;2023-12-20T09:08:44;21.2;;;6.7;;
48627;SDS011;34424;52.234;6.500;2023-12-20T09:13:44;22.4;;;6.3;;
48627;SDS011;34424;52.234;6.500;2023-12-20T09:18:44;15.3;;;4.6;;
48627;SDS011;34424;52.234;6.500;2023-12-20T09:23:43;20.4;;;6.7;;
48627;SDS011;34424;52.234;6.500;2023-12-20T09:28:43;15.2;;;5.8;;
48627;SDS011;34424;52.234;6.500;2023-12-20T09:33:42;20.3;;;7.2;;
48627;SDS011;34424;52.234;6.500;2023-12-20T09:38:43;21.5;;;5.6;;
48627;SDS011;34424;52.234;6.500;2023-12-20T09:43:42;29;;;7.3;;
48627;SDS011;34424;52.234;6.500;2023-12-20T09:48:41;16.4;;;5.4;;
48627;SDS011;34424;52.234;6.500;2023-12-20T09:53:41;23;;;7.7;;
48627;SDS011;34424;52.234;6.500;2023-12-20T09:58:41;21.8;;;7.7;;
48627;SDS011;34424;52.234;6.500;2023-12-20T10:03:40;22.6;;;5.4;;
48627;SDS011;34424;52.234;6.500;2023-12-20T10:08:40;23.4;;;7.4;;
48627;SDS011;34424;52.234;6.500;2023-12-20T10:13:42;16.5;;;5.4;;
48627;SDS011;34424;52.234;6.500;2023-12-20T10:18:39;24.9;;;7.3;;
48627;SDS011;34424;52.234;6.500;2023-12-20T10:23:39;21.4;;;7.2;;
48627;SDS011;34424;52.234;6.500;2023-12-20T10:28:38;22.9;;;7.2;;
48627;SDS011;34424;52.234;6.500;2023-12-20T10:33:38;26.4;;;9.4;;
48627;SDS011;34424;52.234;6.500;2023-12-20T10:38:38;17.1;;;6.7;;
48627;SDS011;34424;52.234;6.500;2023-12-20T10:43:37;18.5;;;6.9;;
48627;SDS011;34424;52.234;6.500;2023-12-20T10:48:37;22.4;;;7.4;;
48627;SDS011;34424;52.234;6.500;2023-12-20T10:53:37;17.3;;;7.1;;
48627;SDS011;34424;52.234;6.500;2023-12-20T10:58:37;23.4;;;7.3;;
48627;SDS011;34424;52.234;6.500;2023-12-20T11:03:36;17.6;;;6.9;;
48627;SDS011;34424;52.234;6.500;2023-12-20T11:08:38;21.3;;;6.9;;
48627;SDS011;34424;52.234;6.500;2023-12-20T11:13:37;17;;;6;;
48627;SDS011;34424;52.234;6.500;2023-12-20T11:18:35;17.8;;;5.9;;
48627;SDS011;34424;52.234;6.500;2023-12-20T11:23:35;20;;;6.7;;
48627;SDS011;34424;52.234;6.500;2023-12-20T11:28:35;21;;;8.5;;
48627;SDS011;34424;52.234;6.500;2023-12-20T11:33:36;18.1;;;6.8;;
48627;SDS011;34424;52.234;6.500;2023-12-20T11:38:39;18.4;;;6.7;;
48627;SDS011;34424;52.234;6.500;2023-12-20T11:43:34;14.7;;;5.8;;
48627;SDS011;34424;52.234;6.500;2023-12-20T11:48:34;20.1;;;7.2;;
48627;SDS011;34424;52.234;6.500;2023-12-20T11:53:34;18.2;;;6.8;;
48627;SDS011;34424;52.234;6.500;2023-12-20T11:58:33;17.6;;;6.2;;
48627;SDS011;34424;52.234;6.500;2023-12-20T12:03:33;12.4;;;4.5;;
48627;SDS011;34424;52.234;6.500;2023-12-20T12:08:33;11.8;;;4.5;;
48627;SDS011;34424;52.234;6.500;2023-12-20T12:13:32;10.8;;;4.1;;
48627;SDS011;34424;52.234;6.500;2023-12-20T12:18:32;12;;;4.6;;
48627;SDS011;34424;52.234;6.500;2023-12-20T12:23:32;11.4;;;4.3;;
48627;SDS011;34424;52.234;6.500;2023-12-20T12:28:31;14.1;;;5.3;;
48627;SDS011;34424;52.234;6.500;2023-12-20T12:33:31;12.8;;;5.5;;
48627;SDS011;34424;52.234;6.500;2023-12-20T12:38:31;24.2;;;6.9;;
48627;SDS011;34424;52.234;6.500;2023-12-20T12:43:30;13.8;;;6;;
48627;SDS011;34424;52.234;6.500;2023-12-20T12:48:30;14.8;;;5.3;;
48627;SDS011;34424;52.234;6.500;2023-12-20T12:53:30;15.8;;;5.8;;
48627;SDS011;34424;52.234;6.500;2023-12-20T12:58:29;12.8;;;5.2;;
48627;SDS011;34424;52.234;6.500;2023-12-20T13:03:29;16.3;;;5.3;;
48627;SDS011;34424;52.234;6.500;2023-12-20T13:08:29;12.3;;;4.8;;
48627;SDS011;34424;52.234;6.500;2023-12-20T13:13:29;11.5;;;4.7;;
48627;SDS011;34424;52.234;6.500;2023-12-20T13:18:28;14.8;;;5;;
48627;SDS011;34424;52.234;6.500;2023-12-20T13:23:28;10.5;;;4.7;;
48627;SDS011;34424;52.234;6.500;2023-12-20T13:28:28;10.9;;;4.5;;
48627;SDS011;34424;52.234;6.500;2023-12-20T13:33:29;11.6;;;4.2;;
48627;SDS011;34424;52.234;6.500;2023-12-20T13:38:27;14.4;;;4.3;;
48627;SDS011;34424;52.234;6.500;2023-12-20T13:43:27;11.9;;;4.2;;
48627;SDS011;34424;52.234;6.500;2023-12-20T13:48:26;12.2;;;4.1;;
48627;SDS011;34424;52.234;6.500;2023-12-20T13:53:26;13.3;;;4.4;;
48627;SDS011;34424;52.234;6.500;2023-12-20T13:58:26;15.7;;;4.5;;
48627;SDS011;34424;52.234;6.500;2023-12-20T14:03:26;9;;;3.8;;
48627;SDS011;34424;52.234;6.500;2023-12-20T14:08:25;15.9;;;4.5;;
48627;SDS011;34424;52.234;6.500;2023-12-20T14:13:25;11;;;4.5;;
48627;SDS011;34424;52.234;6.500;2023-12-20T14:18:25;13.2;;;4.3;;
48627;SDS011;34424;52.234;6.500;2023-12-20T14:23:24;10;;;4.1;;
48627;SDS011;34424;52.234;6.500;2023-12-20T14:28:24;12.3;;;4.6;;
48627;SDS011;34424;52.234;6.500;2023-12-20T14:33:24;11.3;;;4.6;;
48627;SDS011;34424;52.234;6.500;2023-12-20T14:38:23;19;;;5.2;;
48627;SDS011;34424;52.234;6.500;2023-12-20T14:43:23;15.6;;;4.9;;
48627;SDS011;34424;52.234;6.500;2023-12-20T14:48:23;14.8;;;6.8;;
48627;SDS011;34424;52.234;6.500;2023-12-20T14:53:23;15.3;;;6;;
48627;SDS011;34424;52.234;6.500;2023-12-20T14:58:22;11.9;;;5.2;;
48627;SDS011;34424;52.234;6.500;2023-12-20T15:03:22;14;;;4.6;;
48627;SDS011;34424;52.234;6.500;2023-12-20T15:08:21;13.1;;;4.8;;
48627;SDS011;34424;52.234;6.500;2023-12-20T15:13:21;18.5;;;5.7;;
48627;SDS011;34424;52.234;6.500;2023-12-20T15:18:21;14.3;;;5.1;;
48627;SDS011;34424;52.234;6.500;2023-12-20T15:23:20;17.3;;;5.6;;
48627;SDS011;34424;52.234;6.500;2023-12-20T15:28:20;15.9;;;4.8;;
48627;SDS011;34424;52.234;6.500;2023-12-20T15:33:20;18.4;;;6.3;;
48627;SDS011;34424;52.234;6.500;2023-12-20T15:38:19;10.6;;;5;;
48627;SDS011;34424;52.234;6.500;2023-12-20T15:43:19;15.8;;;5;;
48627;SDS011;34424;52.234;6.500;2023-12-20T15:48:19;14.7;;;5.1;;
48627;SDS011;34424;52.234;6.500;2023-12-20T15:53:18;10.7;;;4.6;;
48627;SDS011;34424;52.234;6.500;2023-12-20T15:58:18;19.7;;;5.1;;
48627;SDS011;34424;52.234;6.500;2023-12-20T16:03:18;19.4;;;7;;
48627;SDS011;34424;52.234;6.500;2023-12-20T16:08:17;14.8;;;5.4;;
48627;SDS011;34424;52.234;6.500;2023-12-20T16:13:17;15.7;;;5.5;;
48627;SDS011;34424;52.234;6.500;2023-12-20T16:18:17;16.4;;;5.1;;
48627;SDS011;34424;52.234;6.500;2023-12-20T16:23:16;18.1;;;5.7;;
48627;SDS011;34424;52.234;6.500;2023-12-20T16:28:16;15.6;;;4.9;;
48627;SDS011;34424;52.234;6.500;2023-12-20T16:33:16;18.4;;;6.3;;
48627;SDS011;34424;52.234;6.500;2023-12-20T16:38:15;19.8;;;6.1;;
48627;SDS011;34424;52.234;6.500;2023-12-20T16:43:15;19.5;;;6.5;;
48627;SDS011;34424;52.234;6.500;2023-12-20T16:48:15;17.6;;;5.7;;
48627;SDS011;34424;52.234;6.500;2023-12-20T16:53:14;20.9;;;9.8;;
48627;SDS011;34424;52.234;6.500;2023-12-20T16:58:14;21.2;;;8.2;;
48627;SDS011;34424;52.234;6.500;2023-12-20T17:03:14;25.2;;;7.9;;
48627;SDS011;34424;52.234;6.500;2023-12-20T17:08:13;25;;;8.6;;
48627;SDS011;34424;52.234;6.500;2023-12-20T17:13:13;18.5;;;8.7;;
48627;SDS011;34424;52.234;6.500;2023-12-20T17:18:13;20.3;;;8;;
48627;SDS011;34424;52.234;6.500;2023-12-20T17:23:12;21.8;;;10.7;;
48627;SDS011;34424;52.234;6.500;2023-12-20T17:28:12;22.9;;;11.9;;
48627;SDS011;34424;52.234;6.500;2023-12-20T17:33:13;22.3;;;12.1;;
48627;SDS011;34424;52.234;6.500;2023-12-20T17:38:11;28.1;;;12.4;;
48627;SDS011;34424;52.234;6.500;2023-12-20T17:43:11;24.6;;;12.6;;
48627;SDS011;34424;52.234;6.500;2023-12-20T17:48:11;24.5;;;12.9;;
48627;SDS011;34424;52.234;6.500;2023-12-20T17:53:10;34.3;;;15;;
48627;SDS011;34424;52.234;6.500;2023-12-20T17:58:10;27;;;15.1;;
48627;SDS011;34424;52.234;6.500;2023-12-20T18:03:10;36.8;;;15.1;;
48627;SDS011;34424;52.234;6.500;2023-12-20T18:08:09;26.5;;;15;;
48627;SDS011;34424;52.234;6.500;2023-12-20T18:13:09;27.4;;;15.9;;
48627;SDS011;34424;52.234;6.500;2023-12-20T18:18:09;26.6;;;16.4;;
48627;SDS011;34424;52.234;6.500;2023-12-20T18:23:08;26.6;;;16.2;;
48627;SDS011;34424;52.234;6.500;2023-12-20T18:28:08;27.9;;;16.1;;
48627;SDS011;34424;52.234;6.500;2023-12-20T18:33:08;27.2;;;17.1;;
48627;SDS011;34424;52.234;6.500;2023-12-20T18:38:07;23.7;;;11.7;;
48627;SDS011;34424;52.234;6.500;2023-12-20T18:43:07;23;;;15;;
48627;SDS011;34424;52.234;6.500;2023-12-20T18:48:07;20.2;;;14.4;;
48627;SDS011;34424;52.234;6.500;2023-12-20T18:53:07;18.9;;;13.2;;
48627;SDS011;34424;52.234;6.500;2023-12-20T18:58:06;17;;;12.8;;
48627;SDS011;34424;52.234;6.500;2023-12-20T19:03:06;16;;;11.8;;
48627;SDS011;34424;52.234;6.500;2023-12-20T19:08:06;18.8;;;11.6;;
48627;SDS011;34424;52.234;6.500;2023-12-20T19:13:05;15.9;;;11.4;;
48627;SDS011;34424;52.234;6.500;2023-12-20T19:18:05;15.3;;;11.1;;
48627;SDS011;34424;52.234;6.500;2023-12-20T19:23:04;12.7;;;10.4;;
48627;SDS011;34424;52.234;6.500;2023-12-20T19:28:04;17.3;;;13.4;;
48627;SDS011;34424;52.234;6.500;2023-12-20T19:33:04;17.8;;;11.4;;
48627;SDS011;34424;52.234;6.500;2023-12-20T19:38:04;15.6;;;10.9;;
48627;SDS011;34424;52.234;6.500;2023-12-20T19:43:03;13.9;;;11.3;;
48627;SDS011;34424;52.234;6.500;2023-12-20T19:48:03;14.5;;;10.9;;
48627;SDS011;34424;52.234;6.500;2023-12-20T19:53:03;14;;;11.3;;
48627;SDS011;34424;52.234;6.500;2023-12-20T19:58:02;16;;;12.3;;
48627;SDS011;34424;52.234;6.500;2023-12-20T20:03:02;15.7;;;10.8;;
48627;SDS011;34424;52.234;6.500;2023-12-20T20:08:02;13.7;;;10.2;;
48627;SDS011;34424;52.234;6.500;2023-12-20T20:13:01;16.2;;;10.3;;
48627;SDS011;34424;52.234;6.500;2023-12-20T20:18:01;14.1;;;10.5;;
48627;SDS011;34424;52.234;6.500;2023-12-20T20:23:01;14.4;;;11;;
48627;SDS011;34424;52.234;6.500;2023-12-20T20:28:00;16.6;;;11;;
48627;SDS011;34424;52.234;6.500;2023-12-20T20:33:00;16.3;;;11;;
48627;SDS011;34424;52.234;6.500;2023-12-20T20:38:00;13.7;;;10.8;;
48627;SDS011;34424;52.234;6.500;2023-12-20T20:42:59;16;;;11;;
48627;SDS011;34424;52.234;6.500;2023-12-20T20:47:59;12;;;10.2;;
48627;SDS011;34424;52.234;6.500;2023-12-20T20:52:59;12.8;;;10;;
48627;SDS011;34424;52.234;6.500;2023-12-20T20:57:58;12.7;;;11.1;;
48627;SDS011;34424;52.234;6.500;2023-12-20T21:02:58;16.1;;;11.6;;
48627;SDS011;34424;52.234;6.500;2023-12-20T21:07:58;19.3;;;13.5;;
48627;SDS011;34424;52.234;6.500;2023-12-20T21:12:58;14.3;;;12.2;;
48627;SDS011;34424;52.234;6.500;2023-12-20T21:17:57;14.2;;;11.5;;
48627;SDS011;34424;52.234;6.500;2023-12-20T21:22:57;14.1;;;11.8;;
48627;SDS011;34424;52.234;6.500;2023-12-20T21:27:57;11.7;;;10.3;;
48627;SDS011;34424;52.234;6.500;2023-12-20T21:32:56;14.1;;;10.4;;
48627;SDS011;34424;52.234;6.500;2023-12-20T21:37:56;12.4;;;11;;
48627;SDS011;34424;52.234;6.500;2023-12-20T21:42:56;10.7;;;9.7;;
48627;SDS011;34424;52.234;6.500;2023-12-20T21:47:55;11.4;;;10.2;;
48627;SDS011;34424;52.234;6.500;2023-12-20T21:52:55;12;;;10.4;;
48627;SDS011;34424;52.234;6.500;2023-12-20T21:57:55;12;;;9.5;;
48627;SDS011;34424;52.234;6.500;2023-12-20T22:02:55;11.8;;;10.6;;
48627;SDS011;34424;52.234;6.500;2023-12-20T22:07:55;16.6;;;12.6;;
48627;SDS011;34424;52.234;6.500;2023-12-20T22:12:54;13.8;;;12.2;;
48627;SDS011;34424;52.234;6.500;2023-12-20T22:17:54;15.6;;;12.3;;
48627;SDS011;34424;52.234;6.500;2023-12-20T22:22:53;16.4;;;12.9;;
48627;SDS011;34424;52.234;6.500;2023-12-20T22:27:53;15.2;;;12.1;;
48627;SDS011;34424;52.234;6.500;2023-12-20T22:32:53;16.7;;;13;;
48627;SDS011;34424;52.234;6.500;2023-12-20T22:37:52;19.7;;;13.3;;
48627;SDS011;34424;52.234;6.500;2023-12-20T22:42:52;15.6;;;12;;
48627;SDS011;34424;52.234;6.500;2023-12-20T22:47:52;14.6;;;11;;
48627;SDS011;34424;52.234;6.500;2023-12-20T22:52:52;16.4;;;11;;
48627;SDS011;34424;52.234;6.500;2023-12-20T22:57:51;15.4;;;11.6;;
48627;SDS011;34424;52.234;6.500;2023-12-20T23:02:51;17.7;;;10.9;;
48627;SDS011;34424;52.234;6.500;2023-12-20T23:07:51;19.4;;;12;;
48627;SDS011;34424;52.234;6.500;2023-12-20T23:12:51;16.5;;;11.2;;
48627;SDS011;34424;52.234;6.500;2023-12-20T23:17:50;19.1;;;10.9;;
48627;SDS011;34424;52.234;6.500;2023-12-20T23:22:50;17;;;10.5;;
48627;SDS011;34424;52.234;6.500;2023-12-20T23:27:50;16.3;;;10.8;;
48627;SDS011;34424;52.234;6.500;2023-12-20T23:32:49;20.5;;;11.3;;
48627;SDS011;34424;52.234;6.500;2023-12-20T23:37:49;18.3;;;10.6;;
48627;SDS011;34424;52.234;6.500;2023-12-20T23:42:49;17.1;;;10;;
48627;SDS011;34424;52.234;6.500;2023-12-20T23:47:49;19.1;;;10.7;;
48627;SDS011;34424;52.234;6.500;2023-12-20T23:52:48;16.7;;;10.1;;
48627;SDS011;34424;52.234;6.500;2023-12-20T23:57:48;18.5;;;10.4;;
